Time;durP1;ratioP1;P1;durP2;ratioP2;P2;SDS_P1;SDS_P2;PMS_P1;PMS_P2;Temp;Humidity;BMP_temperature;BMP_pressure;BME280_temperature;BME280_humidity;BME280_pressure;Samples;Min_cycle;Max_cycle;Signal;HPM_P1;HPM_P2
2022/11/09 00:02:10;;;;;;;7.60;2.10;;;;;;;14.64;100.00;100412.19;5265343;28;20049;-78
2022/11/09 00:04:41;;;;;;;5.53;1.80;;;;;;;14.60;100.00;100405.63;5258540;28;20029;-78
2022/11/09 00:07:13;;;;;;;3.70;1.50;;;;;;;14.55;100.00;100411.41;5266025;28;20028;-78
2022/11/09 00:09:44;;;;;;;5.43;1.77;;;;;;;14.53;100.00;100405.44;5262023;28;20040;-78
2022/11/09 00:12:15;;;;;;;7.30;2.08;;;;;;;14.55;100.00;100411.41;5266202;28;20027;-78
2022/11/09 00:14:46;;;;;;;5.38;1.80;;;;;;;14.52;100.00;100403.00;5264141;28;20013;-79
2022/11/09 00:17:18;;;;;;;6.78;2.25;;;;;;;14.48;100.00;100409.56;5267519;28;20102;-79
2022/11/09 00:19:49;;;;;;;6.97;1.92;;;;;;;14.43;100.00;100410.03;5267869;28;20044;-79
2022/11/09 00:22:21;;;;;;;5.50;2.08;;;;;;;14.42;100.00;100397.03;5265041;28;20120;-79
2022/11/09 00:24:52;;;;;;;4.85;1.77;;;;;;;14.54;100.00;100404.47;5264287;28;20077;-79
2022/11/09 00:27:23;;;;;;;3.60;1.30;;;;;;;14.56;100.00;100404.31;5265209;28;20043;-78
2022/11/09 00:29:54;;;;;;;5.68;1.80;;;;;;;14.51;100.00;100401.34;5266047;28;20029;-79
2022/11/09 00:32:26;;;;;;;9.07;2.22;;;;;;;14.51;100.00;100402.19;5266249;28;20386;-79
2022/11/09 00:34:57;;;;;;;6.20;2.30;;;;;;;14.46;100.00;100393.91;5263887;28;20424;-79
2022/11/09 00:37:29;;;;;;;6.38;2.30;;;;;;;14.49;100.00;100398.88;5267061;28;20418;-80
2022/11/09 00:40:01;;;;;;;8.40;1.80;;;;;;;14.48;100.00;100394.56;5267901;28;20067;-80
2022/11/09 00:42:32;;;;;;;5.68;1.90;;;;;;;14.46;100.00;100393.06;5261953;28;20112;-79
2022/11/09 00:45:04;;;;;;;6.03;1.83;;;;;;;14.46;100.00;100390.44;5266741;28;20397;-79
2022/11/09 00:47:35;;;;;;;7.50;2.10;;;;;;;14.45;100.00;100383.53;5265556;28;20029;-78
2022/11/09 00:50:06;;;;;;;5.60;1.80;;;;;;;14.51;100.00;100396.91;5260668;28;20115;-78
2022/11/09 00:52:38;;;;;;;6.80;2.15;;;;;;;14.50;100.00;100384.69;5263095;28;20013;-80
2022/11/09 00:55:09;;;;;;;4.28;1.80;;;;;;;14.44;100.00;100377.44;5265398;28;20032;-78
2022/11/09 00:57:40;;;;;;;5.28;2.00;;;;;;;14.49;100.00;100390.97;5270275;28;20375;-78
2022/11/09 01:00:12;;;;;;;6.18;2.10;;;;;;;14.53;100.00;100391.44;5270335;28;20025;-79
2022/11/09 01:02:44;;;;;;;7.55;1.95;;;;;;;14.53;100.00;100389.63;5263179;28;20052;-79
2022/11/09 01:05:15;;;;;;;6.63;2.10;;;;;;;14.58;100.00;100389.13;5259479;28;20106;-78
2022/11/09 01:07:46;;;;;;;5.72;1.95;;;;;;;14.55;100.00;100395.56;5272402;28;20037;-78
2022/11/09 01:10:18;;;;;;;6.35;2.10;;;;;;;14.58;100.00;100404.94;5268426;28;20032;-79
2022/11/09 01:12:49;;;;;;;6.55;2.00;;;;;;;14.56;100.00;100397.22;5268512;28;20100;-79
2022/11/09 01:15:20;;;;;;;6.10;1.77;;;;;;;14.61;100.00;100399.34;5267396;28;20024;-79
2022/11/09 01:17:51;;;;;;;7.95;1.70;;;;;;;14.67;100.00;100414.50;5268921;28;20047;-78
2022/11/09 01:20:23;;;;;;;5.82;2.00;;;;;;;14.61;100.00;100412.53;5270861;28;20032;-78
2022/11/09 01:22:54;;;;;;;4.60;1.85;;;;;;;14.63;100.00;100410.56;5270448;28;20029;-78
2022/11/09 01:25:25;;;;;;;6.20;2.22;;;;;;;14.57;100.00;100425.22;5265882;28;20028;-79
2022/11/09 01:27:58;;;;;;;7.60;2.08;;;;;;;14.66;100.00;100418.16;5267496;28;20021;-79
2022/11/09 01:30:32;;;;;;;5.93;2.10;;;;;;;14.58;100.00;100420.75;5269317;28;20024;-78
2022/11/09 01:33:05;;;;;;;6.35;1.65;;;;;;;14.57;100.00;100417.31;5272099;28;20059;-79
2022/11/09 01:35:38;;;;;;;4.85;1.92;;;;;;;14.54;100.00;100416.81;5272425;28;20539;-78
2022/11/09 01:38:09;;;;;;;8.02;2.33;;;;;;;14.55;100.00;100427.22;5270577;28;20051;-78
2022/11/09 01:40:41;;;;;;;5.45;1.83;;;;;;;14.53;100.00;100425.72;5264462;28;20132;-78
2022/11/09 01:43:17;;;;;;;5.90;1.58;;;;;;;14.54;100.00;100428.19;5265284;28;20474;-79
2022/11/09 01:45:54;;;;;;;6.28;1.92;;;;;;;14.55;100.00;100426.41;5268981;28;20115;-78
2022/11/09 01:48:37;;;;;;;4.57;1.42;;;;;;;14.55;100.00;100421.94;5266095;28;20025;-79
2022/11/09 01:51:17;;;;;;;5.47;1.60;;;;;;;14.53;100.00;100425.72;5265495;28;20122;-78
2022/11/09 01:53:51;;;;;;;4.50;1.80;;;;;;;14.44;100.00;100411.69;5265435;28;20401;-79
2022/11/09 01:56:23;;;;;;;7.78;1.80;;;;;;;14.36;100.00;100407.25;5266541;28;20029;-78
2022/11/09 01:59:19;;;;;;;5.70;1.55;;;;;;;14.54;100.00;100398.38;5266800;28;20043;-78
2022/11/09 02:01:52;;;;;;;8.00;2.20;;;;;;;14.38;100.00;100416.81;5267453;28;20115;-79
2022/11/09 02:04:32;;;;;;;5.68;1.92;;;;;;;14.46;100.00;100428.16;5267783;28;20083;-78
2022/11/09 02:07:05;;;;;;;5.07;1.45;;;;;;;14.36;100.00;100427.53;5265950;28;20087;-78
2022/11/09 02:09:46;;;;;;;6.43;1.50;;;;;;;14.41;100.00;100417.31;5272659;28;20028;-78
2022/11/09 02:12:20;;;;;;;6.05;2.00;;;;;;;14.28;100.00;100420.44;5272070;28;20548;-78
2022/11/09 02:14:53;;;;;;;8.75;1.98;;;;;;;14.25;100.00;100419.94;5262292;28;20027;-78
2022/11/09 02:17:25;;;;;;;5.90;1.90;;;;;;;14.25;100.00;100418.13;5267777;28;20029;-78
2022/11/09 02:19:57;;;;;;;6.10;1.80;;;;;;;14.24;100.00;100427.00;5262949;28;20344;-77
2022/11/09 02:22:28;;;;;;;7.05;1.73;;;;;;;14.32;100.00;100424.38;5268012;28;20488;-79
2022/11/09 02:25:00;;;;;;;7.18;2.15;;;;;;;14.30;100.00;100423.72;5266551;28;20091;-78
2022/11/09 02:27:32;;;;;;;5.80;1.85;;;;;;;14.30;100.00;100436.91;5266964;28;20132;-78
2022/11/09 02:30:04;;;;;;;4.57;1.60;;;;;;;14.23;100.00;100437.72;5271927;28;20098;-80
2022/11/09 02:32:35;;;;;;;8.83;2.00;;;;;;;14.29;100.00;100443.16;5268780;28;20020;-79
2022/11/09 02:35:09;;;;;;;6.53;1.65;;;;;;;14.34;100.00;100440.84;5264378;28;20552;-80
2022/11/09 02:37:48;;;;;;;6.22;1.83;;;;;;;14.43;100.00;100444.28;5272222;28;20048;-79
2022/11/09 02:40:25;;;;;;;6.80;1.85;;;;;;;14.34;100.00;100437.38;5246902;28;20498;-78
2022/11/09 02:42:56;;;;;;;8.57;1.92;;;;;;;14.29;100.00;100410.72;5265522;28;20029;-78
2022/11/09 02:45:28;;;;;;;8.95;1.75;;;;;;;14.35;100.00;100425.84;5259893;28;20482;-79
2022/11/09 02:47:59;;;;;;;4.90;2.30;;;;;;;14.28;100.00;100402.00;5269947;28;20650;-78
2022/11/09 02:50:31;;;;;;;9.90;2.00;;;;;;;14.35;100.00;100421.41;5267813;28;20036;-79
2022/11/09 02:53:03;;;;;;;10.00;2.25;;;;;;;14.33;100.00;100420.75;5269783;28;20025;-79
2022/11/09 02:55:34;;;;;;;6.32;1.45;;;;;;;14.38;100.00;100379.91;5267275;28;20036;-78
2022/11/09 02:58:05;;;;;;;9.18;2.30;;;;;;;14.49;100.00;100392.75;5266882;28;20040;-78
2022/11/09 03:00:36;;;;;;;6.13;1.60;;;;;;;14.50;100.00;100403.16;5257190;28;20021;-79
2022/11/09 03:03:08;;;;;;;7.18;1.75;;;;;;;14.52;100.00;100406.44;5266594;28;20025;-78
2022/11/09 03:05:39;;;;;;;6.47;1.67;;;;;;;14.49;100.00;100408.56;5264141;28;20039;-78
2022/11/09 03:08:10;;;;;;;10.80;2.20;;;;;;;14.49;100.00;100411.19;5264869;28;20020;-78
2022/11/09 03:10:41;;;;;;;8.25;1.98;;;;;;;14.46;100.00;100430.78;5266779;28;20024;-78
2022/11/09 03:13:13;;;;;;;6.82;1.38;;;;;;;14.42;100.00;100433.94;5261138;28;20028;-79
2022/11/09 03:15:44;;;;;;;11.40;2.33;;;;;;;14.42;100.00;100439.19;5263093;28;20036;-78
2022/11/09 03:18:15;;;;;;;6.97;2.00;;;;;;;14.40;100.00;100455.19;5265890;28;20048;-79
2022/11/09 03:20:46;;;;;;;6.85;1.98;;;;;;;14.42;100.00;100460.28;5260180;28;20041;-78
2022/11/09 03:23:18;;;;;;;7.50;2.25;;;;;;;14.40;100.00;100451.75;5263396;28;20028;-79
2022/11/09 03:25:49;;;;;;;7.05;2.08;;;;;;;14.39;100.00;100466.69;5266361;28;20063;-78
2022/11/09 03:28:20;;;;;;;8.50;2.53;;;;;;;14.37;100.00;100463.41;5263148;28;20029;-79
2022/11/09 03:30:51;;;;;;;7.25;1.90;;;;;;;14.29;100.00;100455.50;5260419;28;20658;-79
2022/11/09 03:33:23;;;;;;;9.27;2.10;;;;;;;14.26;100.00;100450.56;5264083;28;20021;-78
2022/11/09 03:35:54;;;;;;;8.02;2.20;;;;;;;14.25;100.00;100456.84;5265257;28;20025;-78
2022/11/09 03:38:25;;;;;;;7.15;2.15;;;;;;;14.20;100.00;100446.75;5260980;28;20517;-78
2022/11/09 03:41:00;;;;;;;7.55;2.00;;;;;;;14.29;100.00;100466.06;5247962;28;20027;-78
2022/11/09 03:43:32;;;;;;;7.03;2.08;;;;;;;14.22;100.00;100471.16;5262122;28;20511;-79
2022/11/09 03:46:03;;;;;;;11.30;2.03;;;;;;;14.17;100.00;100468.19;5262274;28;20075;-78
2022/11/09 03:48:34;;;;;;;9.20;1.70;;;;;;;14.22;100.00;100476.41;5267137;28;20110;-79
2022/11/09 03:51:05;;;;;;;8.65;2.60;;;;;;;14.16;100.00;100477.06;5271747;28;20036;-78
2022/11/09 03:53:37;;;;;;;8.98;2.15;;;;;;;14.17;100.00;100488.41;5259683;28;20158;-79
2022/11/09 03:56:08;;;;;;;7.28;1.90;;;;;;;14.16;100.00;100494.69;5265822;28;20039;-78
2022/11/09 03:58:39;;;;;;;10.52;2.63;;;;;;;14.13;100.00;100503.75;5262250;28;20051;-79
2022/11/09 04:01:10;;;;;;;7.68;1.73;;;;;;;14.11;100.00;100500.44;5269119;28;20033;-79
2022/11/09 04:03:42;;;;;;;8.43;1.98;;;;;;;14.08;100.00;100501.56;5246300;28;20058;-78
2022/11/09 04:06:13;;;;;;;8.25;2.03;;;;;;;14.10;100.00;100504.06;5263017;28;20035;-79
2022/11/09 04:08:44;;;;;;;10.07;2.00;;;;;;;14.05;100.00;100509.81;5259691;28;20027;-78
2022/11/09 04:11:16;;;;;;;9.27;1.98;;;;;;;13.99;100.00;100518.34;5266255;28;20024;-78
2022/11/09 04:13:49;;;;;;;9.25;2.25;;;;;;;13.90;100.00;100506.13;5266440;28;20028;-78
2022/11/09 04:16:21;;;;;;;9.07;2.35;;;;;;;13.90;100.00;100515.84;5263012;28;20033;-78
2022/11/09 04:18:52;;;;;;;10.60;1.95;;;;;;;13.83;100.00;100521.75;5265745;28;20035;-79
2022/11/09 04:21:23;;;;;;;6.43;1.88;;;;;;;13.84;100.00;100523.41;5260291;28;20041;-79
2022/11/09 04:23:55;;;;;;;9.10;2.00;;;;;;;13.81;100.00;100526.34;5267269;28;20028;-79
2022/11/09 04:26:26;;;;;;;10.55;1.90;;;;;;;13.74;100.00;100519.25;5263810;28;20064;-79
2022/11/09 04:28:57;;;;;;;9.02;1.95;;;;;;;13.75;100.00;100531.41;5262527;28;20032;-78
2022/11/09 04:31:28;;;;;;;9.05;2.13;;;;;;;13.75;100.00;100540.16;5263722;28;20016;-78
2022/11/09 04:34:00;;;;;;;7.13;1.80;;;;;;;13.71;100.00;100536.16;5264091;28;20028;-78
2022/11/09 04:36:31;;;;;;;6.47;1.98;;;;;;;13.75;100.00;100542.78;5263775;28;20025;-78
2022/11/09 04:39:03;;;;;;;7.97;2.00;;;;;;;13.80;100.00;100548.41;5263846;28;20041;-79
2022/11/09 04:41:34;;;;;;;6.30;1.90;;;;;;;13.79;100.00;100546.75;5262811;28;20071;-78
2022/11/09 04:44:05;;;;;;;9.80;2.30;;;;;;;13.83;100.00;100550.72;5261557;28;20506;-78
2022/11/09 04:46:37;;;;;;;7.18;1.70;;;;;;;13.88;100.00;100552.88;5263709;28;20064;-78
2022/11/09 04:49:08;;;;;;;11.70;2.15;;;;;;;13.85;100.00;100550.56;5264577;28;20032;-79
2022/11/09 04:51:39;;;;;;;10.52;2.20;;;;;;;13.82;100.00;100542.97;5261065;28;20021;-79
2022/11/09 04:54:11;;;;;;;8.32;2.25;;;;;;;13.80;100.00;100547.59;5259040;28;20028;-78
2022/11/09 04:56:42;;;;;;;7.32;2.20;;;;;;;13.78;100.00;100549.53;5262978;28;20039;-78
2022/11/09 04:59:13;;;;;;;9.27;2.47;;;;;;;13.78;100.00;100542.47;5265858;28;20055;-78
2022/11/09 05:01:44;;;;;;;6.82;1.70;;;;;;;13.77;100.00;100551.34;5260433;28;20048;-79
2022/11/09 05:04:16;;;;;;;6.32;1.80;;;;;;;13.75;100.00;100544.59;5257508;28;20090;-78
2022/11/09 05:06:47;;;;;;;7.57;1.95;;;;;;;13.72;100.00;100545.75;5265361;28;20031;-78
2022/11/09 05:09:18;;;;;;;8.43;2.53;;;;;;;13.73;100.00;100551.81;5261272;28;20120;-78
2022/11/09 05:11:50;;;;;;;8.82;2.10;;;;;;;13.70;100.00;100542.44;5262594;28;20029;-78
2022/11/09 05:14:22;;;;;;;8.53;1.93;;;;;;;13.59;100.00;100542.69;5259527;28;20501;-78
2022/11/09 05:16:53;;;;;;;8.70;2.00;;;;;;;13.61;100.00;100535.50;5258421;28;20372;-79
2022/11/09 05:19:24;;;;;;;6.90;2.03;;;;;;;13.58;100.00;100535.78;5263343;28;20025;-79
2022/11/09 05:23:57;;;;;;;9.20;2.30;;;;;;;13.53;100.00;100530.19;5263823;28;20037;-78
2022/11/09 05:24:47;;;;;;;7.43;2.30;;;;;;;13.52;100.00;100525.88;5262727;28;20127;-78
2022/11/09 05:27:18;;;;;;;10.75;2.05;;;;;;;13.54;100.00;100534.47;5261269;28;20103;-78
2022/11/09 05:29:49;;;;;;;9.68;2.25;;;;;;;13.53;100.00;100531.00;5263101;28;20474;-80
2022/11/09 05:32:20;;;;;;;8.68;2.03;;;;;;;13.37;100.00;100508.06;5265880;28;20056;-79
2022/11/09 05:34:52;;;;;;;8.30;1.90;;;;;;;13.50;100.00;100538.38;5261223;28;20036;-78
2022/11/09 05:37:23;;;;;;;6.78;1.92;;;;;;;13.45;100.00;100530.97;5263571;28;20049;-78
2022/11/09 05:39:54;;;;;;;9.32;2.03;;;;;;;13.46;100.00;100537.88;5265408;28;20410;-78
2022/11/09 05:42:25;;;;;;;8.77;2.05;;;;;;;13.38;100.00;100540.47;5266851;28;20550;-78
2022/11/09 05:44:57;;;;;;;7.78;2.28;;;;;;;13.41;100.00;100539.31;5265714;28;20500;-79
2022/11/09 05:47:28;;;;;;;7.50;2.05;;;;;;;13.38;100.00;100540.47;5266190;28;20588;-78
2022/11/09 05:49:59;;;;;;;5.80;1.80;;;;;;;13.35;100.00;100541.59;5265573;28;20028;-79
2022/11/09 05:52:30;;;;;;;7.45;1.80;;;;;;;13.33;100.00;100533.03;5272302;28;20021;-78
2022/11/09 05:55:02;;;;;;;7.85;1.65;;;;;;;13.31;100.00;100539.44;5266478;28;20028;-78
2022/11/09 05:57:34;;;;;;;8.45;2.00;;;;;;;13.25;100.00;100540.88;5268002;28;20135;-78
2022/11/09 06:00:06;;;;;;;11.90;2.83;;;;;;;13.24;100.00;100533.97;5269262;28;20473;-78
2022/11/09 06:02:37;;;;;;;8.13;2.60;;;;;;;13.25;100.00;100535.59;5267882;28;20374;-78
2022/11/09 06:05:08;;;;;;;9.48;2.35;;;;;;;13.20;100.00;100545.75;5268281;28;20033;-79
2022/11/09 06:07:40;;;;;;;6.72;1.73;;;;;;;13.23;100.00;100550.72;5267218;28;20032;-79
2022/11/09 06:10:11;;;;;;;9.20;2.30;;;;;;;13.18;100.00;100538.97;5269728;28;20398;-79
2022/11/09 06:12:42;;;;;;;11.75;2.65;;;;;;;13.22;100.00;100546.44;5263923;28;20167;-78
2022/11/09 06:15:14;;;;;;;9.05;2.20;;;;;;;13.17;100.00;100546.03;5268889;28;20374;-78
2022/11/09 06:17:53;;;;;;;10.32;2.63;;;;;;;13.26;100.00;100547.78;5267622;28;20367;-78
2022/11/09 06:20:26;;;;;;;12.10;2.17;;;;;;;13.13;100.00;100552.59;5268432;28;20029;-79
2022/11/09 06:23:01;;;;;;;9.50;1.77;;;;;;;13.24;100.00;100554.19;5267957;28;20056;-78
2022/11/09 06:25:32;;;;;;;7.72;2.13;;;;;;;13.11;100.00;100550.13;5265789;28;20107;-78
2022/11/09 06:28:03;;;;;;;11.85;2.50;;;;;;;13.15;100.00;100563.81;5266416;28;20123;-78
2022/11/09 06:30:35;;;;;;;8.93;2.25;;;;;;;13.06;100.00;100548.91;5266812;28;20562;-79
2022/11/09 06:33:06;;;;;;;10.40;2.92;;;;;;;13.14;100.00;100562.13;5269824;28;20477;-78
2022/11/09 06:35:37;;;;;;;7.68;1.90;;;;;;;13.11;100.00;100560.66;5269337;28;20501;-78
2022/11/09 06:38:12;;;;;;;8.57;1.98;;;;;;;13.14;100.00;100568.25;5264163;28;20486;-79
2022/11/09 06:40:43;;;;;;;8.02;1.80;;;;;;;13.12;100.00;100564.09;5266277;28;20366;-78
2022/11/09 06:43:14;;;;;;;8.93;2.13;;;;;;;13.16;100.00;100573.34;5267220;28;20043;-78
2022/11/09 06:45:46;;;;;;;10.70;2.33;;;;;;;13.13;100.00;100571.00;5261744;28;20059;-79
2022/11/09 06:48:18;;;;;;;9.43;2.03;;;;;;;13.12;100.00;100570.19;5269632;28;20051;-78
2022/11/09 06:50:49;;;;;;;8.45;2.38;;;;;;;13.11;100.00;100568.53;5271507;28;20037;-77
2022/11/09 06:53:20;;;;;;;9.40;2.75;;;;;;;13.15;100.00;100576.94;5264009;28;20033;-77
2022/11/09 06:55:52;;;;;;;8.68;2.35;;;;;;;13.18;100.00;100575.81;5262837;28;20090;-78
2022/11/09 06:58:23;;;;;;;10.40;2.65;;;;;;;13.23;100.00;100577.03;5268151;28;20448;-78
2022/11/09 07:00:54;;;;;;;8.35;2.25;;;;;;;13.18;100.00;100568.72;5264156;28;20855;-78
2022/11/09 07:03:25;;;;;;;9.38;2.08;;;;;;;13.20;100.00;100574.69;5265740;28;20025;-79
2022/11/09 07:05:57;;;;;;;8.55;2.22;;;;;;;13.14;100.00;100580.53;5260563;28;20055;-77
2022/11/09 07:08:28;;;;;;;8.20;1.92;;;;;;;13.11;100.00;100588.75;5266804;28;20024;-77
2022/11/09 07:11:06;;;;;;;9.30;2.13;;;;;;;13.10;100.00;100584.47;5266653;28;20017;-77
2022/11/09 07:13:38;;;;;;;9.32;2.65;;;;;;;12.98;100.00;100585.69;5268037;28;20108;-77
2022/11/09 07:16:11;;;;;;;8.57;2.33;;;;;;;13.00;100.00;100581.94;5261200;28;20115;-78
2022/11/09 07:18:44;;;;;;;11.13;2.75;;;;;;;13.04;100.00;100591.16;5259552;28;20029;-77
2022/11/09 07:21:16;;;;;;;7.88;2.05;;;;;;;13.10;100.00;100598.44;5262908;28;20052;-78
2022/11/09 07:23:48;;;;;;;5.40;1.60;;;;;;;13.04;100.00;100600.88;5257382;28;20473;-80
2022/11/09 07:26:19;;;;;;;12.00;2.78;;;;;;;13.06;100.00;100599.72;5259637;28;20039;-79
2022/11/09 07:28:50;;;;;;;8.27;1.92;;;;;;;13.12;100.00;100603.56;5261878;28;20521;-77
2022/11/09 07:31:21;;;;;;;6.97;2.30;;;;;;;13.15;100.00;100614.59;5263917;28;20489;-80
2022/11/09 07:33:53;;;;;;;9.43;2.22;;;;;;;13.13;100.00;100606.03;5258374;28;20445;-78
2022/11/09 07:36:24;;;;;;;9.20;2.63;;;;;;;13.08;100.00;100602.22;5265176;28;20035;-80
2022/11/09 07:38:55;;;;;;;9.32;2.35;;;;;;;13.15;100.00;100614.59;5258462;28;20058;-78
2022/11/09 07:41:27;;;;;;;7.00;2.17;;;;;;;13.12;100.00;100609.63;5265940;28;20017;-78
2022/11/09 07:43:58;;;;;;;10.18;2.05;;;;;;;13.15;100.00;100609.34;5264659;28;20024;-78
2022/11/09 07:46:29;;;;;;;8.23;2.08;;;;;;;13.12;100.00;100614.06;5267193;28;20091;-77
2022/11/09 07:49:00;;;;;;;11.45;2.08;;;;;;;13.14;100.00;100607.69;5258722;28;20433;-78
2022/11/09 07:51:33;;;;;;;7.90;2.47;;;;;;;13.13;100.00;100598.13;5261869;28;20031;-79
2022/11/09 07:54:05;;;;;;;7.28;1.95;;;;;;;13.23;100.00;100603.34;5265040;28;20043;-78
2022/11/09 07:56:37;;;;;;;8.68;2.35;;;;;;;13.17;100.00;100603.09;5261409;28;20020;-78
2022/11/09 07:59:08;;;;;;;6.57;1.90;;;;;;;13.23;100.00;100615.66;5248662;28;20088;-81
2022/11/09 08:01:39;;;;;;;7.55;2.38;;;;;;;13.28;100.00;100621.28;5255672;28;20075;-78
2022/11/09 08:04:11;;;;;;;9.00;2.03;;;;;;;13.26;100.00;100612.72;5261783;28;20073;-78
2022/11/09 08:06:42;;;;;;;10.13;1.95;;;;;;;13.26;100.00;100615.34;5259354;28;20024;-78
2022/11/09 08:09:13;;;;;;;12.93;2.95;;;;;;;13.26;100.00;100623.25;5257087;28;20127;-77
2022/11/09 08:11:45;;;;;;;6.18;1.88;;;;;;;13.30;100.00;100622.81;5252922;28;20036;-78
2022/11/09 08:14:16;;;;;;;8.95;2.10;;;;;;;13.23;100.00;100621.75;5250370;28;20043;-80
2022/11/09 08:16:47;;;;;;;9.23;2.72;;;;;;;13.27;100.00;100625.72;5260771;28;20057;-78
2022/11/09 08:19:18;;;;;;;6.82;1.70;;;;;;;13.28;100.00;100630.00;5257464;28;20114;-81
2022/11/09 08:21:52;;;;;;;10.40;2.47;;;;;;;13.33;100.00;100638.28;5262396;28;20035;-79
2022/11/09 08:24:25;;;;;;;8.02;2.28;;;;;;;13.29;100.00;100634.28;5257514;28;20144;-77
2022/11/09 08:26:56;;;;;;;6.93;1.63;;;;;;;13.31;100.00;100634.16;5255393;28;20477;-77
2022/11/09 08:29:27;;;;;;;7.63;2.15;;;;;;;13.41;100.00;100649.81;5258642;28;20028;-78
2022/11/09 08:31:58;;;;;;;9.23;2.38;;;;;;;13.45;100.00;100651.19;5263432;28;20036;-77
2022/11/09 08:34:30;;;;;;;8.27;1.92;;;;;;;13.40;100.00;100649.00;5257447;28;20032;-80
2022/11/09 08:37:02;;;;;;;8.45;2.28;;;;;;;13.40;100.00;100651.63;5265121;28;20040;-78
2022/11/09 08:39:33;;;;;;;8.00;2.08;;;;;;;13.43;100.00;100656.59;5268929;28;20032;-78
2022/11/09 08:42:04;;;;;;;8.68;2.00;;;;;;;13.37;100.00;100642.28;5262388;28;20041;-78
2022/11/09 08:44:36;;;;;;;8.15;2.50;;;;;;;13.54;100.00;100655.53;5264272;28;20029;-78
2022/11/09 08:47:07;;;;;;;7.57;2.25;;;;;;;13.56;100.00;100648.28;5266425;28;20426;-78
2022/11/09 08:49:39;;;;;;;8.38;2.20;;;;;;;13.67;100.00;100663.84;5266952;28;20032;-78
2022/11/09 08:52:10;;;;;;;8.75;2.35;;;;;;;13.69;100.00;100656.63;5266734;28;20027;-78
2022/11/09 08:54:42;;;;;;;7.03;1.98;;;;;;;13.70;100.00;100663.53;5264514;28;20112;-78
2022/11/09 08:57:13;;;;;;;7.72;2.17;;;;;;;13.68;100.00;100651.53;5263845;28;20036;-78
2022/11/09 08:59:45;;;;;;;7.85;2.00;;;;;;;13.70;100.00;100657.44;5262109;28;20063;-78
2022/11/09 09:02:17;;;;;;;8.57;2.17;;;;;;;13.75;100.00;100663.06;5262735;28;20021;-77
2022/11/09 09:04:48;;;;;;;9.88;2.20;;;;;;;13.71;100.00;100657.28;5262007;28;20613;-78
2022/11/09 09:07:19;;;;;;;7.07;1.92;;;;;;;13.79;100.00;100659.16;5265503;28;20025;-78
2022/11/09 09:09:50;;;;;;;10.05;2.30;;;;;;;13.78;100.00;100668.03;5265458;28;20032;-78
2022/11/09 09:12:22;;;;;;;10.38;2.33;;;;;;;13.82;100.00;100666.72;5265169;28;20033;-77
2022/11/09 09:14:54;;;;;;;10.18;1.95;;;;;;;13.93;100.00;100663.00;5270642;28;20035;-78
2022/11/09 09:17:25;;;;;;;7.65;2.30;;;;;;;13.95;100.00;100668.97;5267158;28;20020;-77
2022/11/09 09:19:56;;;;;;;9.55;2.22;;;;;;;14.01;100.00;100673.59;5265732;28;20104;-77
2022/11/09 09:22:28;;;;;;;7.15;2.10;;;;;;;14.08;100.00;100664.06;5267307;28;20025;-77
2022/11/09 09:24:59;;;;;;;10.35;2.00;;;;;;;14.09;100.00;100681.53;5268653;28;20017;-78
2022/11/09 09:27:33;;;;;;;10.13;1.80;;;;;;;14.08;100.00;100667.53;5266796;28;20036;-77
2022/11/09 09:30:05;;;;;;;11.23;2.47;;;;;;;14.02;100.00;100654.19;5267593;28;20111;-78
2022/11/09 09:32:37;;;;;;;8.27;2.47;;;;;;;14.08;100.00;100683.34;5268141;28;20150;-78
2022/11/09 09:35:09;;;;;;;9.77;2.30;;;;;;;14.09;100.00;100674.47;5266969;28;20470;-78
2022/11/09 09:37:41;;;;;;;9.15;2.58;;;;;;;14.18;100.00;100675.34;5266852;28;20486;-81
2022/11/09 09:40:25;;;;;;;8.55;2.05;;;;;;;14.34;100.00;100672.75;5270460;28;20193;-78
2022/11/09 09:42:56;;;;;;;9.07;2.53;;;;;;;14.23;100.00;100674.84;5267427;28;20032;-78
2022/11/09 09:45:33;;;;;;;7.00;2.20;;;;;;;14.30;100.00;100678.50;5268884;28;20033;-78
2022/11/09 09:48:20;;;;;;;9.45;2.05;;;;;;;14.43;100.00;100683.31;5267465;28;20044;-77
2022/11/09 09:50:54;;;;;;;9.95;2.25;;;;;;;14.47;100.00;100701.31;5269819;28;20021;-78
2022/11/09 09:53:32;;;;;;;9.02;2.47;;;;;;;14.70;100.00;100698.97;5262476;28;20107;-77
2022/11/09 09:56:11;;;;;;;11.18;2.22;;;;;;;14.82;100.00;100704.75;5268310;28;20433;-78
2022/11/09 09:58:58;;;;;;;7.93;2.28;;;;;;;15.03;100.00;100705.13;5265030;28;20047;-78
2022/11/09 10:01:47;;;;;;;8.93;1.95;;;;;;;15.20;100.00;100705.16;5265752;28;20111;-77
2022/11/09 10:04:23;;;;;;;8.52;2.58;;;;;;;15.10;100.00;100713.22;5268154;28;20033;-77
2022/11/09 10:07:06;;;;;;;10.38;2.55;;;;;;;15.12;100.00;100707.78;5266299;28;20477;-78
2022/11/09 10:10:16;;;;;;;11.52;2.25;;;;;;;15.13;100.00;100710.25;5267772;28;20572;-78
2022/11/09 10:13:19;;;;;;;6.72;1.95;;;;;;;15.21;100.00;100720.00;5269079;28;20020;-78
2022/11/09 10:16:00;;;;;;;9.10;2.20;;;;;;;15.07;100.00;100709.06;5263967;28;20033;-78
2022/11/09 10:19:15;;;;;;;11.02;2.78;;;;;;;15.16;100.00;100723.13;5256862;28;20521;-78
2022/11/09 10:21:52;;;;;;;8.30;1.98;;;;;;;14.94;100.00;100708.75;5260693;28;20469;-78
2022/11/09 10:24:29;;;;;;;7.82;2.40;;;;;;;15.11;100.00;100725.41;5265628;28;20032;-78
2022/11/09 10:27:16;;;;;;;9.35;1.83;;;;;;;15.11;100.00;100709.56;5264957;28;20497;-78
2022/11/09 10:29:49;;;;;;;8.52;2.00;;;;;;;15.06;100.00;100712.72;5265836;28;20035;-78
2022/11/09 10:32:24;;;;;;;11.20;2.00;;;;;;;15.03;100.00;100709.56;5266094;28;20314;-78
2022/11/09 10:35:14;;;;;;;6.53;2.35;;;;;;;15.14;100.00;100697.88;5267673;28;20064;-78
2022/11/09 10:37:48;;;;;;;9.20;1.90;;;;;;;15.23;100.00;100733.88;5264088;28;20087;-78
2022/11/09 10:40:23;;;;;;;5.70;1.70;;;;;;;15.27;100.00;100732.53;5266357;28;20033;-78
2022/11/09 10:43:00;;;;;;;9.57;2.38;;;;;;;15.31;100.00;100724.13;5264670;28;20082;-78
2022/11/09 10:45:37;;;;;;;9.50;1.90;;;;;;;15.22;100.00;100734.81;5266110;28;20394;-78
2022/11/09 10:48:10;;;;;;;10.85;2.05;;;;;;;15.36;100.00;100738.66;5265224;28;20409;-78
2022/11/09 10:50:52;;;;;;;6.40;1.90;;;;;;;15.49;100.00;100738.97;5266540;28;20576;-78
2022/11/09 10:53:29;;;;;;;9.50;2.08;;;;;;;15.39;100.00;100744.44;5267719;28;20033;-78
2022/11/09 10:56:03;;;;;;;7.32;2.35;;;;;;;15.38;100.00;100752.50;5267100;28;20116;-78
2022/11/09 10:58:37;;;;;;;7.93;2.30;;;;;;;15.27;100.00;100725.44;5268006;28;20091;-78
2022/11/09 11:01:15;;;;;;;8.90;1.98;;;;;;;15.30;100.00;100745.38;5267426;28;20502;-78
2022/11/09 11:03:52;;;;;;;9.77;2.42;;;;;;;15.27;100.00;100751.03;5268606;28;20029;-79
2022/11/09 11:06:24;;;;;;;10.32;2.22;;;;;;;15.25;100.00;100752.97;5265022;28;20056;-79
2022/11/09 11:09:04;;;;;;;6.67;1.50;;;;;;;15.41;100.00;100746.91;5271157;28;20067;-78
2022/11/09 11:11:37;;;;;;;6.63;1.80;;;;;;;15.24;100.00;100756.63;5268270;28;20322;-78
2022/11/09 11:14:08;;;;;;;9.15;1.90;;;;;;;15.32;100.00;100752.16;5266749;28;20474;-78
2022/11/09 11:16:41;;;;;;;9.07;2.07;;;;;;;15.19;100.00;100743.91;5266080;28;20055;-78
2022/11/09 11:19:27;;;;;;;;;;;;;;;15.73;100.00;100752.22;5267899;28;20135;-78
2022/11/09 11:22:18;;;;;;;7.20;1.52;;;;;;;15.49;100.00;100755.66;5267032;28;19928;-78
2022/11/09 11:24:49;;;;;;;7.35;2.03;;;;;;;15.24;100.00;100759.25;5265369;28;20548;-78
2022/11/09 11:27:23;;;;;;;5.20;1.53;;;;;;;15.23;100.00;100754.97;5271485;28;20028;-79
2022/11/09 11:30:04;;;;;;;6.85;1.48;;;;;;;15.21;100.00;100756.94;5264553;28;20076;-79
2022/11/09 11:32:35;;;;;;;7.65;1.73;;;;;;;15.25;100.00;100769.63;5267541;28;20033;-79
2022/11/09 11:35:14;;;;;;;8.27;1.85;;;;;;;15.33;100.00;100772.28;5263317;28;20031;-79
2022/11/09 11:38:19;;;;;;;7.57;1.77;;;;;;;15.36;100.00;100765.88;5270786;28;20044;-79
2022/11/09 11:41:09;;;;;;;7.22;1.83;;;;;;;15.16;100.00;100770.63;5268823;28;20020;-79
2022/11/09 11:44:06;;;;;;;10.30;1.77;;;;;;;15.32;100.00;100764.53;5266708;28;20503;-79
2022/11/09 11:46:46;;;;;;;7.78;1.83;;;;;;;15.45;100.00;100759.59;5270119;28;20084;-80